sensor_id;sensor_type;location;lat;lon;timestamp;pressure;altitude;pressure_sealevel;temperature;humidity
26178;BME280;13924;47.670;10.310;2023-07-31T00:00:38;93540;;;15.9;100.0
26178;BME280;13924;47.670;10.310;2023-07-31T00:15:40;93750;;;14.5;100.0
26178;BME280;13924;47.670;10.310;2023-07-31T00:30:39;93660;;;14.7;100.0
26178;BME280;13924;47.670;10.310;2023-07-31T00:45:41;93540;;;15.0;100.0
26178;BME280;13924;47.670;10.310;2023-07-31T01:00:41;93570;;;14.6;100.0
26178;BME280;13924;47.670;10.310;2023-07-31T01:01:27;93550;;;14.6;100.0
26178;BME280;13924;47.670;10.310;2023-07-31T01:15:42;93490;;;15.7;100.0
26178;BME280;13924;47.670;10.310;2023-07-31T01:30:45;93490;;;15.3;100.0
26178;BME280;13924;47.670;10.310;2023-07-31T01:45:43;93530;;;14.5;100.0
26178;BME280;13924;47.670;10.310;2023-07-31T02:00:44;93570;;;14.6;100.0
26178;BME280;13924;47.670;10.310;2023-07-31T02:15:45;93590;;;14.3;100.0
26178;BME280;13924;47.670;10.310;2023-07-31T02:30:45;93730;;;13.7;100.0
26178;BME280;13924;47.670;10.310;2023-07-31T02:45:45;93680;;;13.8;100.0
26178;BME280;13924;47.670;10.310;2023-07-31T03:00:47;93460;;;15.0;100.0
26178;BME280;13924;47.670;10.310;2023-07-31T03:15:47;93500;;;13.9;100.0
26178;BME280;13924;47.670;10.310;2023-07-31T03:30:47;93630;;;13.3;100.0
26178;BME280;13924;47.670;10.310;2023-07-31T03:45:48;93730;;;13.5;100.0
26178;BME280;13924;47.670;10.310;2023-07-31T03:52:49;93620;;;14.3;100.0
26178;BME280;13924;47.670;10.310;2023-07-31T04:07:49;93520;;;14.2;100.0
26178;BME280;13924;47.670;10.310;2023-07-31T04:22:50;93720;;;13.7;100.0
26178;BME280;13924;47.670;10.310;2023-07-31T04:37:50;93800;;;13.8;100.0
26178;BME280;13924;47.670;10.310;2023-07-31T04:52:51;93830;;;13.9;100.0
26178;BME280;13924;47.670;10.310;2023-07-31T05:07:51;93750;;;14.1;100.0
26178;BME280;13924;47.670;10.310;2023-07-31T05:22:53;93780;;;14.2;100.0
26178;BME280;13924;47.670;10.310;2023-07-31T05:37:52;93780;;;14.1;100.0
26178;BME280;13924;47.670;10.310;2023-07-31T05:52:53;93770;;;14.0;100.0
26178;BME280;13924;47.670;10.310;2023-07-31T06:07:54;93670;;;14.3;100.0
26178;BME280;13924;47.670;10.310;2023-07-31T06:22:54;93650;;;14.5;100.0
26178;BME280;13924;47.670;10.310;2023-07-31T06:37:55;93680;;;15.0;100.0
26178;BME280;13924;47.670;10.310;2023-07-31T06:52:56;93560;;;15.0;100.0
26178;BME280;13924;47.670;10.310;2023-07-31T07:07:56;93570;;;15.3;100.0
26178;BME280;13924;47.670;10.310;2023-07-31T07:22:57;93470;;;16.3;100.0
26178;BME280;13924;47.670;10.310;2023-07-31T07:37:57;93400;;;16.5;100.0
26178;BME280;13924;47.670;10.310;2023-07-31T07:53:00;93400;;;16.6;100.0
26178;BME280;13924;47.670;10.310;2023-07-31T08:08:00;93400;;;16.6;100.0
26178;BME280;13924;47.670;10.310;2023-07-31T08:23:01;93330;;;17.2;100.0
26178;BME280;13924;47.670;10.310;2023-07-31T08:38:00;93330;;;17.4;100.0
26178;BME280;13924;47.670;10.310;2023-07-31T08:53:01;93340;;;17.5;100.0
26178;BME280;13924;47.670;10.310;2023-07-31T09:08:02;93320;;;17.7;100.0
26178;BME280;13924;47.670;10.310;2023-07-31T09:23:06;93310;;;18.2;100.0
26178;BME280;13924;47.670;10.310;2023-07-31T09:38:09;93310;;;18.2;100.0
26178;BME280;13924;47.670;10.310;2023-07-31T09:53:04;93280;;;18.7;100.0
26178;BME280;13924;47.670;10.310;2023-07-31T10:08:06;93280;;;18.8;100.0
26178;BME280;13924;47.670;10.310;2023-07-31T10:23:06;93240;;;19.6;100.0
26178;BME280;13924;47.670;10.310;2023-07-31T10:38:13;93220;;;20.3;100.0
26178;BME280;13924;47.670;10.310;2023-07-31T10:53:06;93210;;;19.8;100.0
26178;BME280;13924;47.670;10.310;2023-07-31T11:08:11;93180;;;20.1;100.0
26178;BME280;13924;47.670;10.310;2023-07-31T11:23:10;93160;;;20.9;100.0
26178;BME280;13924;47.670;10.310;2023-07-31T11:38:08;93130;;;21.4;100.0
26178;BME280;13924;47.670;10.310;2023-07-31T11:53:09;93090;;;22.4;100.0
26178;BME280;13924;47.670;10.310;2023-07-31T12:08:10;93080;;;21.8;94.3
26178;BME280;13924;47.670;10.310;2023-07-31T12:23:15;93090;;;22.1;100.0
26178;BME280;13924;47.670;10.310;2023-07-31T12:38:11;93080;;;21.6;100.0
26178;BME280;13924;47.670;10.310;2023-07-31T12:53:12;93070;;;22.1;100.0
26178;BME280;13924;47.670;10.310;2023-07-31T13:08:13;93070;;;21.6;100.0
26178;BME280;13924;47.670;10.310;2023-07-31T13:23:13;93060;;;22.1;100.0
26178;BME280;13924;47.670;10.310;2023-07-31T13:38:14;93050;;;22.5;91.7
26178;BME280;13924;47.670;10.310;2023-07-31T13:53:13;93040;;;21.9;97.3
26178;BME280;13924;47.670;10.310;2023-07-31T14:08:15;93020;;;22.4;91.8
26178;BME280;13924;47.670;10.310;2023-07-31T14:23:15;93010;;;21.4;91.2
26178;BME280;13924;47.670;10.310;2023-07-31T14:38:18;93010;;;21.4;91.2
26178;BME280;13924;47.670;10.310;2023-07-31T14:53:16;93020;;;21.8;100.0
26178;BME280;13924;47.670;10.310;2023-07-31T15:08:17;93010;;;22.2;100.0
26178;BME280;13924;47.670;10.310;2023-07-31T15:23:18;92990;;;21.9;100.0
26178;BME280;13924;47.670;10.310;2023-07-31T15:38:19;92970;;;23.0;86.1
26178;BME280;13924;47.670;10.310;2023-07-31T15:53:21;92970;;;23.0;86.1
26178;BME280;13924;47.670;10.310;2023-07-31T16:08:21;92970;;;21.6;98.9
26178;BME280;13924;47.670;10.310;2023-07-31T16:23:20;92950;;;21.2;100.0
26178;BME280;13924;47.670;10.310;2023-07-31T16:38:21;92950;;;21.1;100.0
26178;BME280;13924;47.670;10.310;2023-07-31T16:53:22;92930;;;21.2;100.0
26178;BME280;13924;47.670;10.310;2023-07-31T17:08:22;92930;;;21.4;100.0
26178;BME280;13924;47.670;10.310;2023-07-31T17:23:24;92920;;;21.5;100.0
26178;BME280;13924;47.670;10.310;2023-07-31T17:38:47;92920;;;21.5;100.0
26178;BME280;13924;47.670;10.310;2023-07-31T17:53:28;92910;;;21.2;100.0
26178;BME280;13924;47.670;10.310;2023-07-31T18:08:26;92890;;;20.9;100.0
26178;BME280;13924;47.670;10.310;2023-07-31T18:23:29;92880;;;20.6;100.0
26178;BME280;13924;47.670;10.310;2023-07-31T18:38:30;92860;;;20.2;100.0
26178;BME280;13924;47.670;10.310;2023-07-31T18:53:30;92860;;;20.2;100.0
26178;BME280;13924;47.670;10.310;2023-07-31T19:08:30;92870;;;20.1;100.0
26178;BME280;13924;47.670;10.310;2023-07-31T19:23:30;92860;;;20.0;100.0
26178;BME280;13924;47.670;10.310;2023-07-31T19:38:30;92880;;;19.9;100.0
26178;BME280;13924;47.670;10.310;2023-07-31T19:53:31;92880;;;20.0;100.0
26178;BME280;13924;47.670;10.310;2023-07-31T20:08:32;92870;;;19.9;100.0
26178;BME280;13924;47.670;10.310;2023-07-31T20:23:32;92850;;;19.8;100.0
26178;BME280;13924;47.670;10.310;2023-07-31T20:38:33;92820;;;19.6;100.0
26178;BME280;13924;47.670;10.310;2023-07-31T20:53:33;92820;;;19.5;100.0
26178;BME280;13924;47.670;10.310;2023-07-31T21:08:35;92820;;;19.2;100.0
26178;BME280;13924;47.670;10.310;2023-07-31T21:23:35;92810;;;19.0;100.0
26178;BME280;13924;47.670;10.310;2023-07-31T21:38:35;92840;;;18.3;100.0
26178;BME280;13924;47.670;10.310;2023-07-31T21:53:37;92830;;;18.7;100.0
26178;BME280;13924;47.670;10.310;2023-07-31T22:00:36;92880;;;18.2;100.0
26178;BME280;13924;47.670;10.310;2023-07-31T22:15:35;92890;;;17.8;100.0
26178;BME280;13924;47.670;10.310;2023-07-31T22:30:35;92880;;;17.6;100.0
26178;BME280;13924;47.670;10.310;2023-07-31T22:45:36;92780;;;18.0;100.0
26178;BME280;13924;47.670;10.310;2023-07-31T23:00:39;92780;;;18.0;100.0
26178;BME280;13924;47.670;10.310;2023-07-31T23:15:39;92760;;;18.1;100.0
26178;BME280;13924;47.670;10.310;2023-07-31T23:30:40;92710;;;18.1;100.0
26178;BME280;13924;47.670;10.310;2023-07-31T23:45:40;92690;;;18.1;100.0
